createdAt,value
2019-03-22T00:00:45.731Z,24.80
2019-03-22T00:03:11.898Z,25.50
2019-03-22T00:05:38.034Z,21.07
2019-03-22T00:08:04.157Z,15.68
2019-03-22T00:10:30.309Z,15.65
2019-03-22T00:12:56.539Z,12.70
2019-03-22T00:15:22.667Z,15.78
2019-03-22T00:17:48.731Z,15.25
2019-03-22T00:20:14.846Z,10.95
2019-03-22T00:22:41.203Z,10.30
2019-03-22T00:25:08.768Z,30.55
2019-03-22T00:27:34.900Z,9.63
2019-03-22T00:30:01.025Z,9.40
2019-03-22T00:32:27.152Z,9.03
2019-03-22T00:34:53.320Z,21.87
2019-03-22T00:37:19.440Z,40.75
2019-03-22T00:39:45.595Z,21.52
2019-03-22T00:42:11.706Z,9.58
2019-03-22T00:44:37.831Z,16.32
2019-03-22T00:47:03.962Z,11.90
2019-03-22T00:49:30.124Z,11.40
2019-03-22T00:51:56.247Z,14.47
2019-03-22T00:54:22.397Z,15.48
2019-03-22T00:56:48.440Z,10.05
2019-03-22T00:59:14.461Z,24.87
2019-03-22T01:01:40.591Z,17.98
2019-03-22T01:04:06.724Z,10.75
2019-03-22T01:06:32.858Z,9.28
2019-03-22T01:08:59.281Z,10.82
2019-03-22T01:11:25.429Z,36.13
2019-03-22T01:13:51.546Z,47.13
2019-03-22T01:16:17.669Z,20.08
2019-03-22T01:18:43.689Z,13.03
2019-03-22T01:21:09.916Z,9.35
2019-03-22T01:23:35.924Z,10.25
2019-03-22T01:26:02.062Z,20.10
2019-03-22T01:28:28.096Z,23.45
2019-03-22T01:30:54.167Z,9.48
2019-03-22T01:33:23.853Z,10.08
2019-03-22T01:35:49.926Z,9.28
2019-03-22T01:38:16.126Z,10.48
2019-03-22T01:40:42.159Z,8.35
2019-03-22T01:43:08.288Z,8.70
2019-03-22T01:45:34.424Z,5.92
2019-03-22T01:48:00.587Z,7.55
2019-03-22T01:50:26.724Z,6.83
2019-03-22T01:52:52.902Z,6.85
2019-03-22T01:55:18.923Z,31.97
2019-03-22T01:57:53.085Z,23.87
2019-03-22T02:00:14.308Z,6.60
2019-03-22T02:02:40.420Z,23.77
2019-03-22T02:05:06.558Z,12.07
2019-03-22T02:07:32.683Z,10.93
2019-03-22T02:09:58.729Z,8.83
2019-03-22T02:12:24.747Z,17.98
2019-03-22T02:14:50.781Z,7.40
2019-03-22T02:17:16.913Z,7.20
2019-03-22T02:19:43.076Z,8.23
2019-03-22T02:22:10.277Z,6.95
2019-03-22T02:24:36.331Z,7.40
2019-03-22T02:27:02.492Z,6.60
2019-03-22T02:29:30.818Z,6.97
2019-03-22T02:31:56.780Z,6.92
2019-03-22T02:34:22.794Z,7.05
2019-03-22T02:36:48.848Z,9.23
2019-03-22T02:39:15.089Z,7.97
2019-03-22T02:41:41.338Z,6.45
2019-03-22T02:44:07.484Z,7.47
2019-03-22T02:46:33.614Z,7.05
2019-03-22T02:48:59.746Z,6.87
2019-03-22T02:51:25.792Z,7.17
2019-03-22T02:53:51.930Z,8.33
2019-03-22T02:56:18.057Z,8.40
2019-03-22T02:58:44.188Z,7.30
2019-03-22T03:01:10.500Z,7.72
2019-03-22T03:03:36.677Z,8.03
2019-03-22T03:06:02.925Z,9.28
2019-03-22T03:08:29.049Z,18.95
2019-03-22T03:10:55.181Z,34.80
2019-03-22T03:13:21.306Z,20.30
2019-03-22T03:15:47.446Z,9.88
2019-03-22T03:18:13.670Z,6.75
2019-03-22T03:20:39.804Z,9.45
2019-03-22T03:23:05.888Z,10.38
2019-03-22T03:25:32.052Z,7.22
2019-03-22T03:27:58.092Z,7.60
2019-03-22T03:30:24.230Z,7.33
2019-03-22T03:32:50.492Z,7.83
2019-03-22T03:35:16.915Z,8.35
2019-03-22T03:37:43.046Z,7.90
2019-03-22T03:40:10.283Z,9.98
2019-03-22T03:42:36.422Z,7.17
2019-03-22T03:45:05.795Z,7.92
2019-03-22T03:49:57.905Z,8.03
2019-03-22T03:52:23.970Z,10.95
2019-03-22T03:54:49.994Z,11.50
2019-03-22T03:57:16.143Z,12.60
2019-03-22T03:59:42.273Z,11.55
2019-03-22T04:02:08.408Z,11.97
2019-03-22T04:04:34.524Z,10.58
2019-03-22T04:07:00.781Z,12.15
2019-03-22T04:09:26.926Z,10.10
2019-03-22T04:11:53.052Z,10.18
2019-03-22T04:14:19.124Z,11.88
2019-03-22T04:16:45.155Z,12.00
2019-03-22T04:19:11.210Z,11.30
2019-03-22T04:21:37.334Z,10.75
2019-03-22T04:24:03.472Z,11.35
2019-03-22T04:26:29.496Z,10.88
2019-03-22T04:29:06.549Z,10.43
2019-03-22T04:31:23.698Z,11.80
2019-03-22T04:33:49.714Z,11.85
2019-03-22T04:36:15.964Z,11.93
2019-03-22T04:38:48.300Z,12.25
2019-03-22T04:41:10.135Z,13.05
2019-03-22T04:43:36.301Z,12.33
2019-03-22T04:46:04.652Z,12.95
2019-03-22T04:48:34.396Z,11.57
2019-03-22T04:51:03.830Z,12.50
2019-03-22T04:53:33.546Z,11.03
2019-03-22T04:56:00.475Z,12.93
2019-03-22T04:58:27.437Z,14.38
2019-03-22T05:00:55.267Z,14.98
2019-03-22T05:03:25.965Z,15.72
2019-03-22T05:05:54.913Z,15.13
2019-03-22T05:08:23.965Z,13.55
2019-03-22T05:10:51.400Z,15.25
2019-03-22T05:13:19.243Z,14.28
2019-03-22T05:15:45.872Z,14.35
2019-03-22T05:18:12.008Z,14.93
2019-03-22T05:20:40.143Z,17.23
2019-03-22T05:23:07.580Z,14.15
2019-03-22T05:25:38.964Z,13.03
2019-03-22T05:28:08.506Z,13.15
2019-03-22T05:30:58.245Z,12.70
2019-03-22T05:33:24.362Z,12.23
2019-03-22T05:35:50.395Z,14.03
2019-03-22T05:38:16.524Z,13.48
2019-03-22T05:40:42.659Z,13.35
2019-03-22T05:43:08.755Z,16.48
2019-03-22T05:45:34.796Z,19.67
2019-03-22T05:48:00.815Z,32.05
2019-03-22T05:50:26.860Z,29.27
2019-03-22T05:52:52.921Z,32.30
2019-03-22T05:55:18.953Z,33.38
2019-03-22T05:57:44.976Z,29.15
2019-03-22T06:00:13.007Z,18.48
2019-03-22T06:02:39.182Z,18.82
2019-03-22T06:05:05.939Z,18.85
2019-03-22T06:07:32.100Z,17.60
2019-03-22T06:09:58.167Z,18.20
2019-03-22T06:12:24.337Z,15.98
2019-03-22T06:14:51.749Z,17.82
2019-03-22T06:17:17.909Z,22.00
2019-03-22T06:19:44.062Z,20.75
2019-03-22T06:22:10.436Z,22.13
2019-03-22T06:24:36.561Z,22.20
2019-03-22T06:27:02.701Z,22.67
2019-03-22T06:29:28.902Z,19.15
2019-03-22T06:31:56.296Z,18.15
2019-03-22T06:34:22.516Z,23.12
2019-03-22T06:36:48.730Z,20.65
2019-03-22T06:39:14.873Z,20.90
2019-03-22T06:41:40.990Z,18.30
2019-03-22T06:44:07.287Z,17.67
2019-03-22T06:46:33.529Z,16.60
2019-03-22T06:48:59.794Z,21.00
2019-03-22T06:51:25.841Z,18.45
2019-03-22T06:53:56.511Z,16.65
2019-03-22T06:56:22.708Z,15.40
2019-03-22T06:58:48.959Z,15.65
2019-03-22T07:01:15.217Z,17.87
2019-03-22T07:03:41.507Z,19.02
2019-03-22T07:06:07.759Z,19.15
2019-03-22T07:08:34.021Z,23.65
2019-03-22T07:11:00.265Z,22.40
2019-03-22T07:13:26.729Z,20.20
2019-03-22T07:15:52.995Z,21.10
2019-03-22T07:18:19.323Z,20.20
2019-03-22T07:20:45.463Z,21.15
2019-03-22T07:23:11.604Z,20.68
2019-03-22T07:25:37.895Z,23.10
2019-03-22T07:28:05.563Z,22.58
2019-03-22T07:30:31.937Z,22.32
2019-03-22T07:32:58.078Z,19.92
2019-03-22T07:35:24.099Z,21.70
2019-03-22T07:37:50.229Z,19.92
2019-03-22T07:40:16.376Z,18.98
2019-03-22T07:42:43.241Z,18.82
2019-03-22T07:45:10.402Z,17.82
2019-03-22T07:47:36.541Z,17.35
2019-03-22T07:50:08.271Z,18.17
2019-03-22T07:52:34.394Z,17.67
2019-03-22T07:55:00.546Z,17.48
2019-03-22T07:57:26.942Z,17.23
2019-03-22T07:59:53.066Z,18.55
2019-03-22T08:02:19.335Z,16.65
2019-03-22T08:04:45.466Z,14.23
2019-03-22T08:07:11.607Z,19.27
2019-03-22T08:09:37.586Z,20.17
2019-03-22T08:12:03.880Z,17.37
2019-03-22T08:14:29.917Z,16.57
2019-03-22T08:17:06.513Z,15.08
2019-03-22T08:19:24.158Z,15.60
2019-03-22T08:21:50.374Z,11.15
2019-03-22T08:24:16.430Z,11.25
2019-03-22T08:26:42.829Z,10.55
2019-03-22T08:29:08.983Z,12.15
2019-03-22T08:31:34.911Z,12.75
2019-03-22T08:34:01.019Z,12.75
2019-03-22T08:36:27.142Z,12.43
2019-03-22T08:38:53.203Z,11.83
2019-03-22T08:41:19.399Z,9.43
2019-03-22T08:43:45.611Z,11.97
2019-03-22T08:46:11.648Z,10.40
2019-03-22T08:48:37.872Z,10.72
2019-03-22T08:51:03.972Z,12.30
2019-03-22T08:53:30.137Z,11.65
2019-03-22T08:55:56.272Z,12.20
2019-03-22T08:58:22.294Z,11.57
2019-03-22T09:00:57.307Z,12.63
2019-03-22T09:03:17.698Z,12.05
2019-03-22T09:05:45.284Z,13.53
2019-03-22T09:08:11.811Z,14.25
2019-03-22T09:10:38.139Z,15.83
2019-03-22T09:13:04.328Z,10.23
2019-03-22T09:15:40.742Z,14.38
2019-03-22T09:18:01.544Z,17.60
2019-03-22T09:20:29.848Z,15.43
2019-03-22T09:22:55.977Z,16.45
2019-03-22T09:25:22.227Z,16.97
2019-03-22T09:27:48.423Z,18.17
2019-03-22T09:30:14.842Z,17.42
2019-03-22T09:32:41.111Z,18.32
2019-03-22T09:35:07.649Z,18.60
2019-03-22T09:37:33.874Z,19.20
2019-03-22T09:40:00.470Z,18.77
2019-03-22T09:42:26.819Z,22.45
2019-03-22T09:44:53.989Z,18.37
2019-03-22T09:47:20.260Z,20.68
2019-03-22T09:49:46.532Z,22.98
2019-03-22T09:52:12.856Z,25.97
2019-03-22T09:54:39.134Z,20.88
2019-03-22T09:57:05.526Z,22.77
2019-03-22T09:59:31.611Z,20.57
2019-03-22T10:01:57.826Z,23.30
2019-03-22T10:04:24.190Z,28.83
2019-03-22T10:06:50.330Z,23.90
2019-03-22T10:09:16.612Z,20.30
2019-03-22T10:11:42.856Z,21.42
2019-03-22T10:14:11.797Z,22.62
2019-03-22T10:16:38.088Z,21.85
2019-03-22T10:19:07.362Z,22.77
2019-03-22T10:21:33.664Z,23.00
2019-03-22T10:23:59.817Z,24.00
2019-03-22T10:26:28.845Z,21.77
2019-03-22T10:28:55.200Z,25.82
2019-03-22T10:31:21.411Z,21.65
2019-03-22T10:33:47.555Z,25.77
2019-03-22T10:36:13.716Z,26.77
2019-03-22T10:38:41.422Z,22.93
2019-03-22T10:41:07.551Z,21.80
2019-03-22T10:43:33.811Z,22.80
2019-03-22T10:46:00.075Z,23.35
2019-03-22T10:48:26.270Z,25.45
2019-03-22T10:50:52.448Z,24.02
2019-03-22T10:53:18.698Z,23.42
2019-03-22T10:55:44.826Z,22.77
2019-03-22T10:58:20.890Z,21.02
2019-03-22T11:00:39.097Z,23.15
2019-03-22T11:03:05.211Z,22.17
2019-03-22T11:05:31.826Z,23.50
2019-03-22T11:07:57.981Z,22.55
2019-03-22T11:10:24.234Z,22.22
2019-03-22T11:12:50.515Z,21.17
2019-03-22T11:15:16.798Z,23.65
2019-03-22T11:17:43.046Z,21.52
2019-03-22T11:20:12.239Z,21.68
2019-03-22T11:22:41.422Z,18.60
2019-03-22T11:25:08.212Z,19.82
2019-03-22T11:27:34.549Z,21.50
2019-03-22T11:30:03.312Z,19.00
2019-03-22T11:32:29.567Z,19.95
2019-03-22T11:34:55.770Z,18.48
2019-03-22T11:37:22.032Z,19.20
2019-03-22T11:39:48.198Z,19.20
2019-03-22T11:42:16.350Z,18.57
2019-03-22T11:44:42.472Z,19.15
2019-03-22T11:47:08.853Z,17.95
2019-03-22T11:49:35.167Z,19.42
2019-03-22T11:52:01.318Z,19.27
2019-03-22T11:54:30.415Z,18.50
2019-03-22T11:56:58.490Z,18.15
2019-03-22T11:59:24.760Z,19.20
2019-03-22T12:01:51.059Z,20.32
2019-03-22T12:04:17.304Z,21.55
2019-03-22T12:06:43.649Z,20.00
2019-03-22T12:09:09.975Z,20.30
2019-03-22T12:11:38.034Z,18.45
2019-03-22T12:14:04.220Z,19.37
2019-03-22T12:16:30.542Z,19.85
2019-03-22T12:18:56.856Z,19.62
2019-03-22T12:21:23.064Z,19.23
2019-03-22T12:23:49.200Z,17.75
2019-03-22T12:26:16.849Z,18.57
2019-03-22T12:28:43.003Z,19.12
2019-03-22T12:31:10.928Z,19.50
2019-03-22T12:33:37.514Z,18.60
2019-03-22T12:36:07.198Z,16.35
2019-03-22T12:38:33.782Z,17.65
2019-03-22T12:41:06.176Z,16.32
2019-03-22T12:43:46.081Z,15.13
2019-03-22T12:50:01.422Z,12.50
2019-03-22T12:52:27.795Z,9.05
2019-03-22T12:54:57.873Z,10.05
2019-03-22T12:57:32.494Z,9.53
2019-03-22T13:00:04.563Z,8.15
2019-03-22T13:02:41.847Z,10.18
2019-03-22T13:05:00.678Z,9.15
2019-03-22T13:07:26.935Z,9.20
2019-03-22T13:09:53.274Z,10.13
2019-03-22T13:12:19.607Z,9.25
2019-03-22T13:14:45.970Z,13.00
2019-03-22T13:17:17.424Z,7.12
2019-03-22T13:19:43.876Z,9.90
2019-03-22T13:22:10.374Z,11.20
2019-03-22T13:24:36.804Z,10.55
2019-03-22T13:27:03.124Z,8.83
2019-03-22T13:29:29.576Z,9.28
2019-03-22T13:31:55.849Z,9.10
2019-03-22T13:34:22.029Z,10.13
2019-03-22T13:36:48.070Z,12.20
2019-03-22T13:39:14.066Z,12.23
2019-03-22T13:41:41.894Z,9.23
2019-03-22T13:44:08.281Z,9.78
2019-03-22T13:46:40.601Z,10.70
2019-03-22T13:49:05.975Z,14.47
2019-03-22T13:51:32.282Z,10.90
2019-03-22T13:54:01.569Z,11.70
2019-03-22T13:58:54.071Z,9.30
2019-03-22T14:01:23.262Z,10.45
2019-03-22T14:03:49.727Z,12.58
2019-03-22T14:06:17.509Z,12.80
2019-03-22T14:08:44.040Z,14.87
2019-03-22T14:11:10.414Z,13.03
2019-03-22T14:13:37.176Z,13.32
2019-03-22T14:16:03.760Z,12.78
2019-03-22T14:18:32.466Z,14.10
2019-03-22T14:21:48.379Z,15.87
2019-03-22T14:24:18.130Z,15.32
2019-03-22T14:26:48.299Z,15.03
2019-03-22T14:30:10.151Z,13.30
2019-03-22T14:31:51.383Z,21.93
2019-03-22T14:34:17.639Z,19.52
2019-03-22T14:36:44.009Z,18.92
2019-03-22T14:39:10.265Z,18.82
2019-03-22T14:41:36.565Z,18.73
2019-03-22T14:44:04.218Z,26.20
2019-03-22T14:46:32.447Z,19.37
2019-03-22T14:49:00.532Z,16.65
2019-03-22T14:51:26.819Z,18.40
2019-03-22T14:53:53.075Z,17.07
2019-03-22T14:56:19.492Z,26.42
2019-03-22T14:58:45.930Z,20.88
2019-03-22T15:01:36.108Z,21.65
2019-03-22T15:04:02.565Z,19.85
2019-03-22T15:06:29.302Z,21.15
2019-03-22T15:08:57.415Z,20.23
2019-03-22T15:11:24.004Z,19.87
2019-03-22T15:13:52.277Z,21.62
2019-03-22T15:16:20.433Z,20.32
2019-03-22T15:19:04.031Z,24.20
2019-03-22T15:21:49.024Z,22.02
2019-03-22T15:24:26.383Z,21.95
2019-03-22T15:27:09.666Z,21.25
2019-03-22T15:30:00.708Z,22.77
2019-03-22T15:32:37.994Z,74.40
2019-03-22T15:35:07.031Z,31.05
2019-03-22T15:37:47.716Z,25.88
2019-03-22T15:45:43.462Z,43.28
2019-03-22T15:48:10.506Z,49.93
2019-03-22T15:50:39.403Z,35.65
2019-03-22T15:53:32.427Z,31.73
2019-03-22T15:56:00.973Z,27.32
2019-03-22T15:58:27.275Z,45.83
2019-03-22T16:00:59.574Z,29.20
2019-03-22T16:03:26.223Z,31.33
2019-03-22T16:05:52.742Z,31.90
2019-03-22T16:08:19.288Z,45.50
2019-03-22T16:11:24.229Z,40.15
2019-03-22T16:13:46.449Z,41.37
2019-03-22T16:16:12.694Z,32.85
2019-03-22T16:18:38.819Z,30.32
2019-03-22T16:21:05.076Z,28.92
2019-03-22T16:23:31.267Z,31.23
2019-03-22T16:25:57.389Z,30.82
2019-03-22T16:28:23.697Z,31.35
2019-03-22T16:30:49.846Z,32.20
2019-03-22T16:33:15.992Z,32.30
2019-03-22T16:35:42.271Z,30.90
2019-03-22T16:38:08.511Z,32.78
2019-03-22T16:40:34.747Z,30.88
2019-03-22T16:43:00.900Z,29.98
2019-03-22T16:45:35.396Z,33.08
2019-03-22T16:48:01.658Z,33.33
2019-03-22T16:50:27.837Z,34.08
2019-03-22T16:52:54.021Z,39.35
2019-03-22T16:55:24.116Z,30.90
2019-03-22T16:57:50.636Z,29.02
2019-03-22T17:00:19.143Z,28.12
2019-03-22T17:02:45.633Z,26.70
2019-03-22T17:05:11.774Z,27.50
2019-03-22T17:07:38.067Z,26.57
2019-03-22T17:10:06.406Z,28.75
2019-03-22T17:12:32.820Z,30.70
2019-03-22T17:14:59.292Z,27.75
2019-03-22T17:17:25.485Z,29.42
2019-03-22T17:19:51.953Z,28.40
2019-03-22T17:22:18.369Z,37.17
2019-03-22T17:24:44.743Z,32.58
2019-03-22T17:27:11.205Z,32.55
2019-03-22T17:29:39.418Z,27.42
2019-03-22T17:32:05.875Z,28.47
2019-03-22T17:34:32.282Z,23.87
2019-03-22T17:36:58.697Z,25.00
2019-03-22T17:39:25.053Z,28.25
2019-03-22T17:41:54.115Z,24.70
2019-03-22T17:44:20.448Z,26.42
2019-03-22T17:46:46.920Z,26.82
2019-03-22T17:49:13.038Z,28.73
2019-03-22T17:51:39.419Z,29.00
2019-03-22T17:54:07.725Z,29.23
2019-03-22T17:56:34.174Z,34.50
2019-03-22T17:59:00.482Z,30.55
2019-03-22T18:01:27.104Z,28.60
2019-03-22T18:03:53.218Z,28.05
2019-03-22T18:06:19.612Z,27.73
2019-03-22T18:08:46.397Z,30.23
2019-03-22T18:11:12.747Z,26.35
2019-03-22T18:13:39.131Z,24.60
2019-03-22T18:16:05.755Z,28.15
2019-03-22T18:18:32.130Z,35.50
2019-03-22T18:21:00.447Z,32.73
2019-03-22T18:23:35.461Z,26.30
2019-03-22T18:25:55.307Z,25.92
2019-03-22T18:28:21.451Z,27.75
2019-03-22T18:30:47.566Z,30.97
2019-03-22T18:33:13.695Z,29.42
2019-03-22T18:35:39.707Z,34.90
2019-03-22T18:38:05.928Z,29.77
2019-03-22T18:40:32.092Z,25.88
2019-03-22T18:42:58.216Z,27.65
2019-03-22T18:45:24.253Z,34.03
2019-03-22T18:47:50.383Z,23.67
2019-03-22T18:50:16.547Z,25.62
2019-03-22T18:52:42.696Z,23.65
2019-03-22T18:55:09.119Z,25.65
2019-03-22T18:57:35.295Z,25.62
2019-03-22T19:00:01.796Z,21.07
2019-03-22T19:02:27.911Z,15.45
2019-03-22T19:04:54.074Z,22.02
2019-03-22T19:07:20.211Z,19.02
2019-03-22T19:09:46.389Z,21.82
2019-03-22T19:12:12.522Z,15.45
2019-03-22T19:14:38.653Z,18.77
2019-03-22T19:17:04.878Z,16.35
2019-03-22T19:19:31.024Z,16.37
2019-03-22T19:21:57.327Z,15.03
2019-03-22T19:24:23.344Z,15.28
2019-03-22T19:26:51.071Z,14.23
2019-03-22T19:29:17.222Z,18.02
2019-03-22T19:31:43.454Z,16.60
2019-03-22T19:34:09.514Z,17.62
2019-03-22T19:36:35.657Z,20.85
2019-03-22T19:39:01.814Z,18.98
2019-03-22T19:41:27.921Z,15.08
2019-03-22T19:43:54.076Z,13.72
2019-03-22T19:46:20.351Z,20.90
2019-03-22T19:48:46.490Z,17.15
2019-03-22T19:51:12.727Z,13.55
2019-03-22T19:53:38.867Z,12.23
2019-03-22T19:56:04.992Z,13.95
2019-03-22T19:58:31.117Z,13.68
2019-03-22T20:00:57.394Z,13.62
2019-03-22T20:03:23.532Z,16.60
2019-03-22T20:05:49.706Z,14.70
2019-03-22T20:08:15.830Z,14.63
2019-03-22T20:10:41.956Z,14.28
2019-03-22T20:13:08.068Z,14.43
2019-03-22T20:15:34.188Z,13.98
2019-03-22T20:18:00.300Z,15.50
2019-03-22T20:20:26.337Z,15.83
2019-03-22T20:22:52.453Z,17.95
2019-03-22T20:25:18.619Z,16.10
2019-03-22T20:27:44.778Z,18.48
2019-03-22T20:30:15.520Z,13.98
2019-03-22T20:32:41.659Z,15.72
2019-03-22T20:35:16.284Z,14.53
2019-03-22T20:37:37.020Z,13.48
2019-03-22T20:40:05.586Z,12.90
2019-03-22T20:42:31.751Z,13.93
2019-03-22T20:44:58.457Z,11.48
2019-03-22T20:47:24.647Z,12.23
2019-03-22T20:49:50.669Z,11.88
2019-03-22T20:52:16.808Z,10.95
2019-03-22T20:54:42.937Z,11.97
2019-03-22T20:57:09.084Z,16.97
2019-03-22T20:59:35.250Z,17.52
2019-03-22T21:02:01.369Z,18.37
2019-03-22T21:04:27.485Z,15.30
2019-03-22T21:06:53.626Z,13.38
2019-03-22T21:09:19.667Z,13.35
2019-03-22T21:11:45.908Z,16.00
2019-03-22T21:14:11.964Z,16.40
2019-03-22T21:16:38.101Z,18.17
2019-03-22T21:19:04.224Z,55.50
2019-03-22T21:21:36.356Z,39.83
2019-03-22T21:23:58.437Z,16.75
2019-03-22T21:26:24.452Z,16.73
2019-03-22T21:28:55.614Z,11.90
2019-03-22T21:31:21.842Z,25.37
2019-03-22T21:33:47.910Z,31.07
2019-03-22T21:36:14.040Z,31.85
2019-03-22T21:38:40.209Z,30.90
2019-03-22T21:41:06.327Z,27.62
2019-03-22T21:43:32.666Z,15.53
2019-03-22T21:45:59.230Z,12.53
2019-03-22T21:48:25.602Z,12.25
2019-03-22T21:50:52.059Z,12.03
2019-03-22T21:53:18.509Z,12.45
2019-03-22T21:55:44.992Z,11.12
2019-03-22T21:58:14.754Z,12.70
2019-03-22T22:00:41.213Z,14.70
2019-03-22T22:03:07.730Z,15.32
2019-03-22T22:05:33.959Z,12.88
2019-03-22T22:08:03.288Z,9.18
2019-03-22T22:12:55.813Z,20.68
2019-03-22T22:15:21.988Z,16.07
2019-03-22T22:18:01.172Z,12.88
2019-03-22T22:20:28.436Z,11.63
2019-03-22T22:22:47.067Z,10.85
2019-03-22T22:25:13.192Z,11.03
2019-03-22T22:27:39.419Z,11.40
2019-03-22T22:30:06.835Z,12.75
2019-03-22T22:32:32.981Z,10.82
2019-03-22T22:34:59.168Z,11.73
2019-03-22T22:37:25.288Z,12.98
2019-03-22T22:39:51.444Z,12.93
2019-03-22T22:42:17.586Z,12.60
2019-03-22T22:44:43.734Z,17.02
2019-03-22T22:47:09.768Z,16.10
2019-03-22T22:49:35.925Z,17.27
2019-03-22T22:52:02.090Z,14.50
2019-03-22T22:54:28.209Z,15.35
2019-03-22T22:56:54.322Z,16.85
2019-03-22T22:59:21.497Z,17.07
2019-03-22T23:01:47.584Z,18.00
2019-03-22T23:04:13.693Z,13.15
2019-03-22T23:06:39.847Z,18.35
2019-03-22T23:09:06.064Z,18.27
2019-03-22T23:11:32.197Z,16.62
2019-03-22T23:13:58.354Z,13.68
2019-03-22T23:16:36.763Z,14.28
2019-03-22T23:19:02.928Z,15.37
2019-03-22T23:21:29.065Z,12.88
2019-03-22T23:23:55.251Z,14.63
2019-03-22T23:26:21.416Z,14.85
2019-03-22T23:28:47.549Z,14.13
2019-03-22T23:31:13.694Z,13.03
2019-03-22T23:33:39.813Z,13.05
2019-03-22T23:36:05.841Z,13.53
2019-03-22T23:38:31.974Z,11.05
2019-03-22T23:40:57.911Z,10.75
2019-03-22T23:43:24.132Z,12.10
2019-03-22T23:45:50.173Z,10.88
2019-03-22T23:48:16.306Z,11.75
2019-03-22T23:50:42.439Z,9.88
2019-03-22T23:53:08.565Z,9.68
2019-03-22T23:55:34.700Z,10.95
2019-03-22T23:58:00.737Z,10.10
